createdAt,value
2023-02-22T00:02:13.279Z,30.25
2023-02-22T00:04:42.021Z,30.49
2023-02-22T00:07:10.360Z,30.57
2023-02-22T00:09:40.262Z,29.99
2023-02-22T00:12:10.304Z,30.10
2023-02-22T00:14:40.360Z,30.33
2023-02-22T00:17:08.640Z,29.76
2023-02-22T00:19:37.182Z,29.82
2023-02-22T00:22:05.456Z,30.11
2023-02-22T00:24:36.239Z,29.87
2023-02-22T00:27:05.794Z,29.71
2023-02-22T00:29:34.787Z,30.08
2023-02-22T00:32:03.166Z,30.35
2023-02-22T00:34:31.876Z,30.40
2023-02-22T00:37:03.093Z,30.90
2023-02-22T00:39:31.592Z,30.74
2023-02-22T00:42:00.344Z,30.97
2023-02-22T00:44:30.466Z,30.44
2023-02-22T00:46:58.747Z,30.98
2023-02-22T00:49:27.275Z,30.95
2023-02-22T00:51:56.035Z,30.97
2023-02-22T00:54:24.566Z,31.08
2023-02-22T00:56:54.157Z,31.15
2023-02-22T00:59:22.755Z,31.12
2023-02-22T01:01:52.313Z,30.93
2023-02-22T01:04:20.895Z,31.23
2023-02-22T01:06:49.354Z,31.29
2023-02-22T01:09:17.834Z,31.23
2023-02-22T01:11:46.499Z,31.32
2023-02-22T01:14:15.021Z,31.46
2023-02-22T01:16:44.532Z,31.73
2023-02-22T01:19:14.372Z,31.43
2023-02-22T01:21:42.574Z,31.83
2023-02-22T01:24:11.652Z,31.63
2023-02-22T01:26:39.985Z,31.62
2023-02-22T01:29:10.208Z,31.64
2023-02-22T01:31:38.477Z,32.00
2023-02-22T01:34:07.024Z,31.74
2023-02-22T01:36:36.712Z,31.78
2023-02-22T01:39:05.549Z,32.03
2023-02-22T01:41:34.025Z,32.13
2023-02-22T01:44:21.590Z,31.43
2023-02-22T01:46:49.866Z,32.58
2023-02-22T01:49:18.614Z,32.32
2023-02-22T01:51:52.787Z,32.04
2023-02-22T01:54:25.047Z,32.18
2023-02-22T01:56:56.037Z,32.10
2023-02-22T01:59:25.181Z,32.31
2023-02-22T02:01:53.408Z,32.51
2023-02-22T02:04:25.631Z,32.35
2023-02-22T02:06:56.084Z,32.12
2023-02-22T02:09:31.256Z,31.87
2023-02-22T02:12:02.771Z,32.24
2023-02-22T02:14:33.018Z,32.55
2023-02-22T02:17:02.495Z,32.34
2023-02-22T02:19:40.059Z,31.85
2023-02-22T02:22:25.730Z,31.78
2023-02-22T02:25:19.203Z,32.10
2023-02-22T02:28:19.289Z,31.58
2023-02-22T02:31:03.564Z,32.04
2023-02-22T02:33:34.858Z,32.36
2023-02-22T02:36:05.966Z,32.50
2023-02-22T02:38:36.363Z,32.41
2023-02-22T02:41:10.797Z,32.23
2023-02-22T02:43:43.545Z,32.36
2023-02-22T02:46:16.141Z,32.50
2023-02-22T02:48:50.515Z,32.39
2023-02-22T02:51:19.828Z,32.61
2023-02-22T02:53:49.291Z,32.51
2023-02-22T02:56:17.859Z,32.79
2023-02-22T02:58:49.211Z,32.60
2023-02-22T03:01:24.438Z,32.25
2023-02-22T03:04:03.485Z,32.31
2023-02-22T03:06:51.441Z,31.95
2023-02-22T03:09:28.916Z,31.96
2023-02-22T03:12:05.315Z,32.18
2023-02-22T03:14:39.583Z,32.24
2023-02-22T03:17:16.308Z,32.18
2023-02-22T03:19:48.007Z,32.42
2023-02-22T03:22:23.894Z,32.26
2023-02-22T03:24:55.200Z,32.37
2023-02-22T03:27:28.174Z,32.47
2023-02-22T03:30:00.906Z,32.40
2023-02-22T03:32:32.814Z,32.48
2023-02-22T03:35:06.562Z,32.23
2023-02-22T03:37:37.600Z,32.86
2023-02-22T03:40:13.959Z,32.97
2023-02-22T03:42:45.190Z,32.89
2023-02-22T03:45:15.737Z,33.12
2023-02-22T03:47:47.476Z,33.12
2023-02-22T03:50:18.515Z,32.18
2023-02-22T03:52:48.451Z,33.24
2023-02-22T03:55:17.865Z,33.47
2023-02-22T03:57:48.219Z,33.68
2023-02-22T04:00:22.484Z,33.48
2023-02-22T04:02:51.162Z,33.79
2023-02-22T04:05:21.516Z,33.71
2023-02-22T04:07:50.278Z,33.96
2023-02-22T04:10:19.004Z,33.58
2023-02-22T04:12:47.821Z,33.82
2023-02-22T04:15:17.991Z,33.57
2023-02-22T04:17:46.806Z,33.66
2023-02-22T04:20:15.435Z,33.82
2023-02-22T04:22:45.369Z,33.81
2023-02-22T04:25:13.821Z,33.89
2023-02-22T04:27:42.453Z,34.05
2023-02-22T04:30:11.985Z,34.06
2023-02-22T04:32:40.771Z,34.10
2023-02-22T04:35:09.590Z,33.69
2023-02-22T04:37:38.149Z,33.81
2023-02-22T04:40:08.952Z,33.58
2023-02-22T04:42:37.941Z,33.45
2023-02-22T04:45:08.052Z,33.79
2023-02-22T04:47:36.714Z,33.39
2023-02-22T04:50:05.596Z,33.48
2023-02-22T04:52:36.771Z,33.55
2023-02-22T04:55:05.991Z,33.36
2023-02-22T04:57:35.868Z,33.40
2023-02-22T05:00:05.879Z,33.44
2023-02-22T05:02:34.489Z,33.64
2023-02-22T05:05:02.814Z,33.58
2023-02-22T05:07:31.452Z,33.66
2023-02-22T05:09:59.640Z,33.72
2023-02-22T05:12:28.662Z,33.41
2023-02-22T05:14:58.726Z,33.36
2023-02-22T05:17:26.883Z,33.51
2023-02-22T05:19:55.460Z,32.88
2023-02-22T05:22:24.547Z,32.57
2023-02-22T05:24:53.497Z,32.97
2023-02-22T05:27:21.927Z,33.04
2023-02-22T05:29:50.752Z,32.83
2023-02-22T05:32:20.345Z,32.85
2023-02-22T05:34:48.963Z,33.07
2023-02-22T05:37:17.533Z,33.35
2023-02-22T05:39:46.827Z,33.16
2023-02-22T05:42:15.021Z,32.90
2023-02-22T05:44:44.159Z,33.08
2023-02-22T05:47:12.421Z,33.19
2023-02-22T05:49:42.458Z,32.92
2023-02-22T05:52:10.580Z,33.00
2023-02-22T05:54:39.184Z,32.95
2023-02-22T05:57:07.822Z,32.95
2023-02-22T05:59:36.327Z,33.10
2023-02-22T06:02:04.833Z,33.11
2023-02-22T06:04:33.318Z,32.97
2023-02-22T06:07:03.036Z,32.96
2023-02-22T06:09:31.701Z,33.39
2023-02-22T06:12:00.100Z,33.39
2023-02-22T06:14:28.509Z,33.40
2023-02-22T06:16:57.695Z,33.22
2023-02-22T06:19:26.614Z,33.32
2023-02-22T06:21:57.148Z,33.44
2023-02-22T06:24:27.688Z,33.10
2023-02-22T06:26:57.041Z,33.39
2023-02-22T06:29:25.742Z,33.25
2023-02-22T06:31:54.090Z,33.04
2023-02-22T06:34:23.214Z,33.11
2023-02-22T06:36:51.648Z,33.08
2023-02-22T06:39:20.214Z,33.05
2023-02-22T06:41:51.576Z,32.55
2023-02-22T06:44:20.146Z,32.37
2023-02-22T06:46:50.997Z,31.91
2023-02-22T06:49:20.328Z,32.06
2023-02-22T06:51:48.747Z,32.06
2023-02-22T06:54:17.396Z,32.09
2023-02-22T06:56:45.733Z,31.98
2023-02-22T06:59:15.704Z,31.73
2023-02-22T07:01:44.688Z,31.79
2023-02-22T07:04:13.237Z,31.54
2023-02-22T07:06:41.667Z,31.57
2023-02-22T07:09:10.533Z,31.40
2023-02-22T07:11:39.917Z,31.05
2023-02-22T07:14:08.563Z,30.92
2023-02-22T07:16:38.439Z,30.61
2023-02-22T07:19:06.989Z,30.93
2023-02-22T07:21:35.375Z,30.63
2023-02-22T07:24:05.472Z,30.56
2023-02-22T07:26:40.137Z,30.15
2023-02-22T07:29:08.778Z,30.69
2023-02-22T07:31:39.058Z,30.33
2023-02-22T07:34:07.843Z,30.30
2023-02-22T07:36:36.190Z,30.48
2023-02-22T07:39:04.807Z,30.42
2023-02-22T07:41:33.307Z,30.43
2023-02-22T07:44:01.802Z,30.46
2023-02-22T07:46:30.257Z,30.71
2023-02-22T07:49:00.152Z,30.61
2023-02-22T07:51:28.516Z,30.28
2023-02-22T07:53:56.999Z,30.03
2023-02-22T07:56:25.227Z,30.05
2023-02-22T07:58:53.794Z,30.45
2023-02-22T08:01:22.198Z,30.20
2023-02-22T08:03:50.711Z,30.06
2023-02-22T08:06:21.085Z,29.79
2023-02-22T08:08:49.589Z,29.98
2023-02-22T08:11:18.103Z,29.78
2023-02-22T08:13:46.784Z,29.85
2023-02-22T08:16:14.972Z,29.61
2023-02-22T08:18:43.513Z,29.76
2023-02-22T08:21:11.732Z,29.35
2023-02-22T08:23:41.604Z,29.06
2023-02-22T08:26:15.697Z,29.26
2023-02-22T08:28:44.337Z,28.94
2023-02-22T08:31:12.704Z,29.02
2023-02-22T08:33:41.618Z,29.08
2023-02-22T08:36:10.571Z,28.80
2023-02-22T08:38:39.070Z,28.69
2023-02-22T08:41:08.741Z,28.14
2023-02-22T08:43:37.299Z,28.42
2023-02-22T08:46:06.166Z,28.14
2023-02-22T08:48:34.838Z,28.49
2023-02-22T08:51:03.110Z,28.01
2023-02-22T08:53:32.946Z,27.65
2023-02-22T08:56:01.147Z,27.67
2023-02-22T08:58:31.058Z,27.22
2023-02-22T09:00:59.646Z,27.56
2023-02-22T09:03:28.403Z,27.53
2023-02-22T09:05:59.558Z,27.18
2023-02-22T09:08:28.374Z,26.51
2023-02-22T09:10:56.673Z,26.17
2023-02-22T09:13:25.443Z,25.70
2023-02-22T09:15:55.029Z,25.38
2023-02-22T09:18:24.503Z,25.00
2023-02-22T09:20:53.721Z,24.52
2023-02-22T09:23:22.831Z,24.28
2023-02-22T09:25:51.868Z,24.04
2023-02-22T09:28:20.405Z,24.04
2023-02-22T09:30:49.055Z,23.92
2023-02-22T09:33:21.048Z,23.82
2023-02-22T09:35:51.007Z,23.13
2023-02-22T09:38:22.852Z,23.22
2023-02-22T09:40:52.884Z,23.32
2023-02-22T09:43:37.136Z,21.87
2023-02-22T09:46:23.093Z,21.82
2023-02-22T09:49:07.755Z,21.54
2023-02-22T09:51:42.641Z,21.24
2023-02-22T09:54:17.743Z,21.57
2023-02-22T09:56:47.717Z,21.28
2023-02-22T09:59:20.482Z,21.17
2023-02-22T10:01:51.423Z,21.07
2023-02-22T10:04:24.880Z,20.46
2023-02-22T10:07:06.239Z,20.54
2023-02-22T10:09:38.457Z,20.84
2023-02-22T10:12:12.849Z,20.66
2023-02-22T10:14:50.782Z,20.63
2023-02-22T10:17:27.545Z,20.33
2023-02-22T10:20:08.435Z,20.33
2023-02-22T10:22:57.928Z,20.63
2023-02-22T10:25:28.034Z,20.72
2023-02-22T10:27:59.004Z,19.90
2023-02-22T10:30:28.358Z,18.49
2023-02-22T10:33:00.974Z,18.88
2023-02-22T10:35:34.423Z,18.95
2023-02-22T10:38:08.616Z,18.96
2023-02-22T10:40:37.202Z,19.27
2023-02-22T10:43:07.257Z,19.01
2023-02-22T10:45:37.248Z,18.75
2023-02-22T10:48:11.745Z,18.48
2023-02-22T10:50:43.400Z,18.12
2023-02-22T10:53:11.994Z,17.34
2023-02-22T10:56:12.843Z,17.67
2023-02-22T10:58:49.280Z,17.91
2023-02-22T11:01:38.557Z,17.37
2023-02-22T11:04:13.098Z,17.88
2023-02-22T11:06:45.100Z,18.48
2023-02-22T11:09:15.714Z,18.73
2023-02-22T11:11:47.262Z,19.10
2023-02-22T11:14:27.150Z,19.07
2023-02-22T11:16:57.076Z,19.92
2023-02-22T11:19:26.990Z,20.41
2023-02-22T11:21:58.745Z,20.10
2023-02-22T11:24:34.633Z,19.23
2023-02-22T11:27:09.063Z,20.00
2023-02-22T11:29:38.417Z,19.61
2023-02-22T11:32:15.420Z,19.56
2023-02-22T11:34:44.204Z,19.68
2023-02-22T11:37:30.587Z,19.32
2023-02-22T11:40:19.835Z,19.38
2023-02-22T11:42:48.707Z,19.71
2023-02-22T11:45:20.943Z,19.26
2023-02-22T11:47:53.755Z,19.22
2023-02-22T11:50:29.750Z,19.21
2023-02-22T11:53:10.614Z,19.17
2023-02-22T11:55:46.880Z,18.98
2023-02-22T11:58:28.463Z,18.54
2023-02-22T12:01:01.822Z,17.94
2023-02-22T12:03:58.592Z,17.48
2023-02-22T12:06:33.628Z,17.53
2023-02-22T12:09:14.177Z,16.99
2023-02-22T12:11:50.959Z,17.19
2023-02-22T12:14:26.886Z,17.49
2023-02-22T12:17:13.935Z,17.89
2023-02-22T12:19:44.695Z,18.22
2023-02-22T12:22:17.968Z,18.18
2023-02-22T12:24:55.453Z,18.28
2023-02-22T12:27:35.397Z,18.18
2023-02-22T12:30:07.125Z,18.08
2023-02-22T12:32:38.156Z,17.57
2023-02-22T12:35:14.405Z,17.69
2023-02-22T12:37:52.448Z,17.55
2023-02-22T12:40:25.878Z,17.09
2023-02-22T12:42:58.869Z,17.16
2023-02-22T12:45:31.932Z,17.65
2023-02-22T12:48:08.853Z,17.06
2023-02-22T12:50:38.715Z,17.34
2023-02-22T12:53:15.199Z,17.12
2023-02-22T12:55:49.308Z,17.08
2023-02-22T12:58:25.367Z,17.19
2023-02-22T13:01:00.725Z,17.15
2023-02-22T13:03:33.431Z,17.18
2023-02-22T13:06:24.868Z,17.52
2023-02-22T13:09:03.959Z,17.55
2023-02-22T13:11:41.290Z,17.45
2023-02-22T13:14:18.429Z,17.63
2023-02-22T13:16:52.838Z,17.84
2023-02-22T13:19:34.220Z,17.51
2023-02-22T13:22:07.225Z,17.92
2023-02-22T13:24:41.813Z,18.17
2023-02-22T13:27:15.586Z,18.42
2023-02-22T13:29:46.205Z,18.35
2023-02-22T13:32:26.630Z,18.08
2023-02-22T13:35:31.948Z,17.66
2023-02-22T13:38:11.811Z,18.00
2023-02-22T13:41:12.407Z,17.84
2023-02-22T13:43:55.290Z,17.91
2023-02-22T13:47:01.332Z,18.20
2023-02-22T13:49:49.371Z,17.87
2023-02-22T13:52:18.870Z,18.34
2023-02-22T13:54:51.613Z,18.39
2023-02-22T13:57:22.267Z,18.21
2023-02-22T14:00:24.451Z,17.70
2023-02-22T14:03:02.219Z,17.73
2023-02-22T14:05:52.332Z,17.81
2023-02-22T14:08:42.775Z,17.95
2023-02-22T14:11:56.992Z,17.70
2023-02-22T14:14:25.921Z,18.53
2023-02-22T14:17:24.038Z,17.93
2023-02-22T14:20:04.787Z,18.02
2023-02-22T14:22:33.332Z,18.68
2023-02-22T14:25:01.592Z,18.47
2023-02-22T14:27:41.028Z,18.38
2023-02-22T14:30:26.221Z,18.67
2023-02-22T14:32:56.473Z,19.24
2023-02-22T14:35:28.788Z,20.26
2023-02-22T14:38:02.880Z,20.62
2023-02-22T14:40:32.776Z,20.98
2023-02-22T14:43:04.919Z,21.34
2023-02-22T14:45:34.766Z,21.56
2023-02-22T14:48:13.684Z,20.97
2023-02-22T14:50:45.412Z,20.73
2023-02-22T14:53:22.191Z,20.45
2023-02-22T14:55:56.278Z,20.62
2023-02-22T14:58:27.530Z,20.90
2023-02-22T15:00:56.975Z,21.35
2023-02-22T15:03:34.392Z,20.98
2023-02-22T15:06:07.475Z,21.28
2023-02-22T15:08:41.755Z,21.74
2023-02-22T15:11:21.709Z,20.83
2023-02-22T15:13:54.405Z,21.05
2023-02-22T15:16:24.028Z,21.31
2023-02-22T15:18:56.668Z,20.64
2023-02-22T15:21:27.146Z,21.23
2023-02-22T15:23:58.130Z,21.13
2023-02-22T15:26:30.821Z,20.73
2023-02-22T15:29:00.527Z,21.21
2023-02-22T15:31:32.229Z,21.22
2023-02-22T15:34:22.277Z,21.61
2023-02-22T15:36:54.610Z,22.85
2023-02-22T15:39:27.224Z,22.79
2023-02-22T15:42:08.059Z,21.93
2023-02-22T15:44:38.809Z,21.95
2023-02-22T15:47:07.997Z,22.35
2023-02-22T15:49:38.131Z,21.97
2023-02-22T15:52:09.759Z,21.80
2023-02-22T15:54:41.513Z,21.84
2023-02-22T15:57:09.596Z,21.15
2023-02-22T15:59:44.563Z,22.06
2023-02-22T16:02:30.303Z,21.70
2023-02-22T16:05:02.992Z,22.70
2023-02-22T16:07:31.279Z,23.14
2023-02-22T16:10:08.199Z,23.76
2023-02-22T16:12:37.110Z,23.76
2023-02-22T16:15:16.699Z,23.34
2023-02-22T16:18:01.068Z,24.01
2023-02-22T16:20:35.465Z,23.67
2023-02-22T16:23:23.783Z,23.44
2023-02-22T16:26:19.951Z,23.79
2023-02-22T16:28:52.015Z,24.43
2023-02-22T16:31:22.378Z,24.79
2023-02-22T16:33:51.270Z,24.82
2023-02-22T16:36:22.702Z,24.64
2023-02-22T16:38:51.881Z,25.01
2023-02-22T16:41:20.890Z,25.14
2023-02-22T16:43:51.364Z,25.06
2023-02-22T16:46:20.532Z,25.11
2023-02-22T16:48:49.014Z,25.25
2023-02-22T16:51:22.148Z,25.07
2023-02-22T16:53:51.190Z,25.48
2023-02-22T16:56:21.372Z,25.92
2023-02-22T16:58:51.215Z,25.62
2023-02-22T17:01:20.096Z,25.99
2023-02-22T17:03:48.654Z,25.98
2023-02-22T17:06:17.509Z,26.05
2023-02-22T17:08:47.261Z,26.00
2023-02-22T17:11:15.964Z,26.25
2023-02-22T17:13:45.807Z,26.13
2023-02-22T17:16:16.546Z,26.26
2023-02-22T17:18:46.143Z,26.42
2023-02-22T17:21:16.806Z,26.36
2023-02-22T17:23:46.272Z,26.55
2023-02-22T17:26:18.186Z,26.37
2023-02-22T17:28:46.626Z,26.67
2023-02-22T17:31:20.967Z,26.45
2023-02-22T17:33:51.454Z,26.96
2023-02-22T17:36:20.977Z,26.90
2023-02-22T17:38:50.187Z,27.04
2023-02-22T17:41:20.419Z,26.78
2023-02-22T17:43:48.750Z,26.79
2023-02-22T17:46:19.789Z,26.99
2023-02-22T17:48:49.391Z,26.88
2023-02-22T17:51:18.113Z,26.68
2023-02-22T17:53:46.452Z,26.80
2023-02-22T17:56:18.865Z,26.45
2023-02-22T17:58:50.803Z,26.47
2023-02-22T18:01:27.232Z,26.37
2023-02-22T18:03:57.045Z,26.85
2023-02-22T18:06:28.573Z,26.48
2023-02-22T18:08:58.932Z,26.85
2023-02-22T18:11:32.616Z,26.79
2023-02-22T18:14:02.611Z,26.91
2023-02-22T18:16:31.135Z,27.29
2023-02-22T18:19:01.741Z,27.46
2023-02-22T18:21:30.470Z,27.22
2023-02-22T18:23:58.808Z,27.31
2023-02-22T18:26:28.119Z,27.40
2023-02-22T18:28:57.374Z,27.12
2023-02-22T18:31:27.346Z,27.28
2023-02-22T18:33:57.631Z,27.11
2023-02-22T18:36:26.245Z,27.15
2023-02-22T18:38:55.811Z,27.38
2023-02-22T18:41:27.105Z,27.17
2023-02-22T18:43:59.065Z,27.28
2023-02-22T18:46:30.346Z,27.27
2023-02-22T18:48:59.178Z,27.38
2023-02-22T18:51:28.473Z,27.53
2023-02-22T18:54:00.590Z,27.41
2023-02-22T18:56:31.039Z,27.50
2023-02-22T18:59:00.313Z,27.23
2023-02-22T19:01:31.358Z,27.43
2023-02-22T19:03:59.677Z,27.64
2023-02-22T19:06:28.234Z,27.41
2023-02-22T19:08:56.414Z,27.59
2023-02-22T19:11:25.816Z,27.63
2023-02-22T19:13:55.720Z,27.73
2023-02-22T19:16:26.618Z,27.78
2023-02-22T19:18:58.080Z,27.75
2023-02-22T19:21:27.858Z,27.95
2023-02-22T19:23:56.048Z,28.03
2023-02-22T19:26:26.311Z,28.13
2023-02-22T19:28:56.567Z,28.08
2023-02-22T19:31:29.807Z,28.06
2023-02-22T19:34:03.444Z,28.06
2023-02-22T19:36:32.169Z,28.74
2023-02-22T19:39:02.018Z,29.01
2023-02-22T19:41:31.161Z,29.31
2023-02-22T19:43:59.804Z,29.41
2023-02-22T19:46:28.587Z,29.28
2023-02-22T19:48:57.338Z,29.55
2023-02-22T19:51:28.789Z,29.58
2023-02-22T19:53:58.784Z,30.39
2023-02-22T19:56:28.466Z,30.44
2023-02-22T19:58:58.092Z,30.55
2023-02-22T20:01:29.203Z,30.74
2023-02-22T20:04:00.102Z,30.54
2023-02-22T20:06:34.900Z,30.37
2023-02-22T20:09:04.211Z,30.58
2023-02-22T20:11:32.421Z,30.45
2023-02-22T20:14:02.158Z,30.74
2023-02-22T20:16:30.799Z,30.49
2023-02-22T20:18:59.548Z,30.72
2023-02-22T20:21:31.962Z,30.61
2023-02-22T20:24:01.137Z,30.69
2023-02-22T20:26:31.092Z,30.38
2023-02-22T20:29:00.153Z,30.47
2023-02-22T20:31:29.649Z,30.63
2023-02-22T20:34:00.030Z,30.76
2023-02-22T20:36:31.120Z,30.84
2023-02-22T20:39:00.107Z,29.79
2023-02-22T20:41:29.862Z,30.86
2023-02-22T20:43:58.692Z,31.27
2023-02-22T20:46:28.198Z,31.24
2023-02-22T20:48:57.290Z,31.24
2023-02-22T20:51:26.366Z,31.22
2023-02-22T20:53:59.853Z,31.37
2023-02-22T20:56:29.895Z,31.68
2023-02-22T20:59:00.150Z,31.77
2023-02-22T21:01:28.582Z,31.98
2023-02-22T21:04:01.652Z,31.63
2023-02-22T21:06:30.953Z,32.27
2023-02-22T21:09:02.861Z,31.92
2023-02-22T21:11:32.469Z,32.08
2023-02-22T21:14:01.784Z,32.26
2023-02-22T21:16:31.889Z,32.27
2023-02-22T21:19:03.415Z,32.17
2023-02-22T21:21:32.070Z,32.35
2023-02-22T21:24:02.249Z,32.71
2023-02-22T21:26:33.100Z,32.93
2023-02-22T21:29:03.540Z,33.15
2023-02-22T21:31:33.012Z,33.16
2023-02-22T21:34:02.271Z,33.30
2023-02-22T21:36:32.133Z,33.52
2023-02-22T21:39:08.475Z,33.79
2023-02-22T21:41:39.167Z,33.84
2023-02-22T21:44:09.230Z,33.89
2023-02-22T21:46:37.660Z,33.83
2023-02-22T21:49:06.277Z,33.83
2023-02-22T21:51:35.166Z,33.72
2023-02-22T21:54:07.355Z,33.36
2023-02-22T21:56:38.044Z,33.84
2023-02-22T21:59:11.780Z,34.22
2023-02-22T22:01:43.074Z,34.36
2023-02-22T22:04:13.753Z,34.40
2023-02-22T22:06:42.203Z,34.13
2023-02-22T22:09:18.388Z,34.22
2023-02-22T22:11:49.702Z,34.56
2023-02-22T22:14:18.719Z,34.72
2023-02-22T22:16:48.485Z,34.94
2023-02-22T22:19:17.893Z,35.67
2023-02-22T22:21:48.915Z,35.40
2023-02-22T22:24:20.949Z,34.42
2023-02-22T22:26:51.263Z,36.02
2023-02-22T22:29:19.864Z,36.11
2023-02-22T22:31:48.834Z,35.80
2023-02-22T22:34:17.508Z,36.51
2023-02-22T22:36:47.578Z,36.45
2023-02-22T22:39:16.218Z,36.14
2023-02-22T22:41:46.435Z,36.20
2023-02-22T22:44:16.515Z,36.35
2023-02-22T22:46:49.152Z,36.42
2023-02-22T22:49:18.594Z,36.59
2023-02-22T22:51:47.562Z,37.12
2023-02-22T22:54:16.067Z,37.26
2023-02-22T22:56:46.562Z,37.06
2023-02-22T22:59:15.401Z,35.76
2023-02-22T23:01:45.399Z,36.34
2023-02-22T23:04:16.937Z,37.03
2023-02-22T23:06:45.472Z,36.10
2023-02-22T23:09:18.903Z,37.01
2023-02-22T23:11:51.039Z,37.36
2023-02-22T23:14:21.491Z,37.40
2023-02-22T23:16:50.965Z,37.75
2023-02-22T23:19:20.413Z,37.93
2023-02-22T23:21:49.220Z,38.40
2023-02-22T23:24:20.790Z,38.38
2023-02-22T23:26:50.731Z,36.88
2023-02-22T23:29:20.857Z,37.56
2023-02-22T23:31:49.571Z,37.47
2023-02-22T23:34:21.218Z,37.19
2023-02-22T23:36:50.120Z,37.43
2023-02-22T23:39:20.636Z,37.40
2023-02-22T23:41:52.773Z,37.45
2023-02-22T23:44:21.994Z,36.96
2023-02-22T23:46:55.290Z,37.49
2023-02-22T23:49:26.245Z,37.40
2023-02-22T23:51:54.648Z,36.93
2023-02-22T23:54:24.612Z,38.14
2023-02-22T23:56:57.304Z,36.95
2023-02-22T23:59:27.176Z,38.06
